Online Now
Guests 2
Members   0

24/7 FSX Server
IP: 71.135.74.145
@ KSFO until 4/23/21



Information and tools for flight simulation use only - NOT for real avaition

File Flight Plans Here

KSFO 190556Z 31010KT 10SM FEW005 13/07 A3010 RMK AO2 SLP191 T01280072 10172 20122 50007KSFO 190520Z 1906/2012 29014KT P6SM SKC FM190800 28009KT P6SM FEW007 TEMPO 1912/1916 6SM BR BKN007 FM191700 28009KT P6SM FEW010 FM191900 27015KT P6SM FEW250 FM192100 27020G25KT P6SM FEW250 FM200300 27022G28KT P6SM FEW015 FM200900 27018G23KT P6SM SCT015
Aviation Digital Data Service (ADDS)



Other FSX servers